sensor_id;sensor_type;location;lat;lon;timestamp;P1;durP1;ratioP1;P2;durP2;ratioP2
3922;SDS011;1976;51.694;6.256;2023-02-20T00:02:23;10.43;;;6.40;;
3922;SDS011;1976;51.694;6.256;2023-02-20T00:04:49;13.53;;;6.67;;
3922;SDS011;1976;51.694;6.256;2023-02-20T00:07:15;12.00;;;7.53;;
3922;SDS011;1976;51.694;6.256;2023-02-20T00:09:40;8.27;;;3.77;;
3922;SDS011;1976;51.694;6.256;2023-02-20T00:12:06;9.80;;;6.40;;
3922;SDS011;1976;51.694;6.256;2023-02-20T00:14:32;11.97;;;4.93;;
3922;SDS011;1976;51.694;6.256;2023-02-20T00:16:57;13.43;;;7.73;;
3922;SDS011;1976;51.694;6.256;2023-02-20T00:19:23;6.13;;;4.23;;
3922;SDS011;1976;51.694;6.256;2023-02-20T00:21:49;18.10;;;7.30;;
3922;SDS011;1976;51.694;6.256;2023-02-20T00:24:17;10.97;;;6.27;;
3922;SDS011;1976;51.694;6.256;2023-02-20T00:26:50;4.33;;;3.40;;
3922;SDS011;1976;51.694;6.256;2023-02-20T00:29:17;13.87;;;7.87;;
3922;SDS011;1976;51.694;6.256;2023-02-20T00:31:51;9.07;;;6.27;;
3922;SDS011;1976;51.694;6.256;2023-02-20T00:34:21;3.13;;;2.83;;
3922;SDS011;1976;51.694;6.256;2023-02-20T00:36:49;5.13;;;3.07;;
3922;SDS011;1976;51.694;6.256;2023-02-20T00:39:14;6.20;;;5.27;;
3922;SDS011;1976;51.694;6.256;2023-02-20T00:41:40;5.93;;;3.17;;
3922;SDS011;1976;51.694;6.256;2023-02-20T00:44:06;8.70;;;4.87;;
3922;SDS011;1976;51.694;6.256;2023-02-20T00:46:31;11.10;;;6.07;;
3922;SDS011;1976;51.694;6.256;2023-02-20T00:48:58;8.33;;;4.97;;
3922;SDS011;1976;51.694;6.256;2023-02-20T00:51:24;8.87;;;6.00;;
3922;SDS011;1976;51.694;6.256;2023-02-20T00:53:50;10.90;;;7.07;;
3922;SDS011;1976;51.694;6.256;2023-02-20T00:56:15;12.57;;;8.30;;
3922;SDS011;1976;51.694;6.256;2023-02-20T00:58:41;8.37;;;5.93;;
3922;SDS011;1976;51.694;6.256;2023-02-20T01:01:07;11.80;;;7.30;;
3922;SDS011;1976;51.694;6.256;2023-02-20T01:03:32;10.47;;;5.87;;
3922;SDS011;1976;51.694;6.256;2023-02-20T01:05:58;8.67;;;3.80;;
3922;SDS011;1976;51.694;6.256;2023-02-20T01:08:24;8.73;;;5.10;;
3922;SDS011;1976;51.694;6.256;2023-02-20T01:10:50;10.30;;;6.17;;
3922;SDS011;1976;51.694;6.256;2023-02-20T01:13:15;6.67;;;4.17;;
3922;SDS011;1976;51.694;6.256;2023-02-20T01:15:42;13.20;;;5.37;;
3922;SDS011;1976;51.694;6.256;2023-02-20T01:18:07;7.83;;;5.60;;
3922;SDS011;1976;51.694;6.256;2023-02-20T01:20:33;8.47;;;5.37;;
3922;SDS011;1976;51.694;6.256;2023-02-20T01:22:59;11.87;;;6.57;;
3922;SDS011;1976;51.694;6.256;2023-02-20T01:25:25;9.00;;;5.97;;
3922;SDS011;1976;51.694;6.256;2023-02-20T01:27:51;8.43;;;4.57;;
3922;SDS011;1976;51.694;6.256;2023-02-20T01:30:16;9.63;;;5.60;;
3922;SDS011;1976;51.694;6.256;2023-02-20T01:32:43;5.37;;;4.57;;
3922;SDS011;1976;51.694;6.256;2023-02-20T01:35:09;9.70;;;4.97;;
3922;SDS011;1976;51.694;6.256;2023-02-20T01:37:35;8.60;;;4.80;;
3922;SDS011;1976;51.694;6.256;2023-02-20T01:40:00;9.03;;;6.50;;
3922;SDS011;1976;51.694;6.256;2023-02-20T01:42:28;10.23;;;5.20;;
3922;SDS011;1976;51.694;6.256;2023-02-20T01:45:16;8.90;;;3.43;;
3922;SDS011;1976;51.694;6.256;2023-02-20T01:47:48;4.53;;;3.47;;
3922;SDS011;1976;51.694;6.256;2023-02-20T01:50:17;14.90;;;6.47;;
3922;SDS011;1976;51.694;6.256;2023-02-20T01:52:46;9.10;;;5.80;;
3922;SDS011;1976;51.694;6.256;2023-02-20T01:55:22;10.77;;;6.17;;
3922;SDS011;1976;51.694;6.256;2023-02-20T01:57:56;8.97;;;4.67;;
3922;SDS011;1976;51.694;6.256;2023-02-20T02:00:32;9.33;;;4.50;;
3922;SDS011;1976;51.694;6.256;2023-02-20T02:05:26;6.50;;;4.57;;
3922;SDS011;1976;51.694;6.256;2023-02-20T02:07:54;5.10;;;3.20;;
3922;SDS011;1976;51.694;6.256;2023-02-20T02:10:33;4.17;;;3.83;;
3922;SDS011;1976;51.694;6.256;2023-02-20T02:13:20;6.53;;;4.50;;
3922;SDS011;1976;51.694;6.256;2023-02-20T02:15:49;6.37;;;5.10;;
3922;SDS011;1976;51.694;6.256;2023-02-20T02:18:26;16.47;;;6.40;;
3922;SDS011;1976;51.694;6.256;2023-02-20T02:21:08;9.43;;;6.73;;
3922;SDS011;1976;51.694;6.256;2023-02-20T02:37:23;7.07;;;5.10;;
3922;SDS011;1976;51.694;6.256;2023-02-20T02:42:36;5.23;;;4.27;;
3922;SDS011;1976;51.694;6.256;2023-02-20T02:45:17;8.50;;;5.07;;
3922;SDS011;1976;51.694;6.256;2023-02-20T02:50:33;9.57;;;5.50;;
3922;SDS011;1976;51.694;6.256;2023-02-20T02:53:04;18.00;;;7.30;;
3922;SDS011;1976;51.694;6.256;2023-02-20T02:55:33;25.13;;;7.43;;
3922;SDS011;1976;51.694;6.256;2023-02-20T02:57:59;8.87;;;5.80;;
3922;SDS011;1976;51.694;6.256;2023-02-20T03:00:28;7.70;;;5.27;;
3922;SDS011;1976;51.694;6.256;2023-02-20T03:05:46;5.70;;;5.03;;
3922;SDS011;1976;51.694;6.256;2023-02-20T03:10:55;5.83;;;4.50;;
3922;SDS011;1976;51.694;6.256;2023-02-20T03:13:29;14.50;;;6.57;;
3922;SDS011;1976;51.694;6.256;2023-02-20T03:16:20;7.43;;;4.33;;
3922;SDS011;1976;51.694;6.256;2023-02-20T03:18:51;16.00;;;6.80;;
3922;SDS011;1976;51.694;6.256;2023-02-20T03:21:20;14.97;;;7.97;;
3922;SDS011;1976;51.694;6.256;2023-02-20T03:23:52;6.63;;;4.60;;
3922;SDS011;1976;51.694;6.256;2023-02-20T03:26:25;8.80;;;5.40;;
3922;SDS011;1976;51.694;6.256;2023-02-20T03:28:57;10.93;;;6.60;;
3922;SDS011;1976;51.694;6.256;2023-02-20T03:31:29;8.40;;;5.37;;
3922;SDS011;1976;51.694;6.256;2023-02-20T03:34:40;10.60;;;6.13;;
3922;SDS011;1976;51.694;6.256;2023-02-20T03:37:27;10.90;;;7.20;;
3922;SDS011;1976;51.694;6.256;2023-02-20T03:40:14;13.53;;;7.77;;
3922;SDS011;1976;51.694;6.256;2023-02-20T03:43:02;23.70;;;10.30;;
3922;SDS011;1976;51.694;6.256;2023-02-20T03:46:03;14.90;;;7.93;;
3922;SDS011;1976;51.694;6.256;2023-02-20T03:48:42;8.80;;;5.63;;
3922;SDS011;1976;51.694;6.256;2023-02-20T03:51:12;6.87;;;5.87;;
3922;SDS011;1976;51.694;6.256;2023-02-20T03:53:42;18.07;;;10.70;;
3922;SDS011;1976;51.694;6.256;2023-02-20T03:56:15;10.30;;;7.37;;
3922;SDS011;1976;51.694;6.256;2023-02-20T03:58:46;18.60;;;8.17;;
3922;SDS011;1976;51.694;6.256;2023-02-20T04:01:18;16.57;;;10.20;;
3922;SDS011;1976;51.694;6.256;2023-02-20T04:03:47;10.20;;;5.93;;
3922;SDS011;1976;51.694;6.256;2023-02-20T04:06:16;9.40;;;6.77;;
3922;SDS011;1976;51.694;6.256;2023-02-20T04:09:06;12.27;;;7.07;;
3922;SDS011;1976;51.694;6.256;2023-02-20T04:11:35;14.20;;;7.50;;
3922;SDS011;1976;51.694;6.256;2023-02-20T04:14:07;4.93;;;4.17;;
3922;SDS011;1976;51.694;6.256;2023-02-20T04:16:35;19.10;;;7.83;;
3922;SDS011;1976;51.694;6.256;2023-02-20T04:19:06;13.27;;;7.77;;
3922;SDS011;1976;51.694;6.256;2023-02-20T04:21:34;13.17;;;8.23;;
3922;SDS011;1976;51.694;6.256;2023-02-20T04:24:06;17.17;;;10.20;;
3922;SDS011;1976;51.694;6.256;2023-02-20T04:26:36;17.63;;;8.70;;
3922;SDS011;1976;51.694;6.256;2023-02-20T04:29:02;21.83;;;11.83;;
3922;SDS011;1976;51.694;6.256;2023-02-20T04:31:29;17.17;;;9.33;;
3922;SDS011;1976;51.694;6.256;2023-02-20T04:33:55;14.00;;;6.30;;
3922;SDS011;1976;51.694;6.256;2023-02-20T04:36:20;14.93;;;8.73;;
3922;SDS011;1976;51.694;6.256;2023-02-20T04:38:47;10.03;;;5.83;;
3922;SDS011;1976;51.694;6.256;2023-02-20T04:41:12;15.37;;;5.30;;
3922;SDS011;1976;51.694;6.256;2023-02-20T04:43:38;19.10;;;10.90;;
3922;SDS011;1976;51.694;6.256;2023-02-20T04:46:04;14.93;;;8.50;;
3922;SDS011;1976;51.694;6.256;2023-02-20T04:48:29;15.00;;;7.40;;
3922;SDS011;1976;51.694;6.256;2023-02-20T04:50:55;9.23;;;5.13;;
3922;SDS011;1976;51.694;6.256;2023-02-20T04:53:21;12.40;;;8.20;;
3922;SDS011;1976;51.694;6.256;2023-02-20T04:55:46;27.20;;;11.50;;
3922;SDS011;1976;51.694;6.256;2023-02-20T04:58:12;11.47;;;6.20;;
3922;SDS011;1976;51.694;6.256;2023-02-20T05:00:37;11.87;;;7.00;;
3922;SDS011;1976;51.694;6.256;2023-02-20T05:03:03;16.73;;;9.90;;
3922;SDS011;1976;51.694;6.256;2023-02-20T05:05:29;14.17;;;8.80;;
3922;SDS011;1976;51.694;6.256;2023-02-20T05:07:55;8.03;;;6.83;;
3922;SDS011;1976;51.694;6.256;2023-02-20T05:10:27;17.03;;;6.20;;
3922;SDS011;1976;51.694;6.256;2023-02-20T05:12:53;14.33;;;7.83;;
3922;SDS011;1976;51.694;6.256;2023-02-20T05:15:20;10.43;;;5.83;;
3922;SDS011;1976;51.694;6.256;2023-02-20T05:17:46;21.93;;;11.20;;
3922;SDS011;1976;51.694;6.256;2023-02-20T05:20:12;10.67;;;6.47;;
3922;SDS011;1976;51.694;6.256;2023-02-20T05:22:39;8.63;;;5.30;;
3922;SDS011;1976;51.694;6.256;2023-02-20T05:25:05;25.93;;;11.87;;
3922;SDS011;1976;51.694;6.256;2023-02-20T05:27:31;12.93;;;6.87;;
3922;SDS011;1976;51.694;6.256;2023-02-20T05:29:58;16.53;;;7.77;;
3922;SDS011;1976;51.694;6.256;2023-02-20T05:32:25;11.10;;;6.57;;
3922;SDS011;1976;51.694;6.256;2023-02-20T05:34:52;17.43;;;9.13;;
3922;SDS011;1976;51.694;6.256;2023-02-20T05:37:19;26.07;;;11.10;;
3922;SDS011;1976;51.694;6.256;2023-02-20T05:39:46;13.67;;;6.93;;
3922;SDS011;1976;51.694;6.256;2023-02-20T05:42:13;15.40;;;7.67;;
3922;SDS011;1976;51.694;6.256;2023-02-20T05:44:39;13.23;;;7.67;;
3922;SDS011;1976;51.694;6.256;2023-02-20T05:47:05;20.63;;;8.20;;
3922;SDS011;1976;51.694;6.256;2023-02-20T05:49:34;15.73;;;6.90;;
3922;SDS011;1976;51.694;6.256;2023-02-20T05:52:00;19.03;;;8.63;;
3922;SDS011;1976;51.694;6.256;2023-02-20T05:54:27;7.47;;;6.20;;
3922;SDS011;1976;51.694;6.256;2023-02-20T05:56:53;18.27;;;6.70;;
3922;SDS011;1976;51.694;6.256;2023-02-20T05:59:21;8.57;;;6.63;;
3922;SDS011;1976;51.694;6.256;2023-02-20T06:01:47;13.00;;;7.40;;
3922;SDS011;1976;51.694;6.256;2023-02-20T06:04:19;8.77;;;5.80;;
3922;SDS011;1976;51.694;6.256;2023-02-20T06:06:45;16.30;;;7.27;;
3922;SDS011;1976;51.694;6.256;2023-02-20T06:09:11;10.30;;;6.30;;
3922;SDS011;1976;51.694;6.256;2023-02-20T06:11:41;14.37;;;8.33;;
3922;SDS011;1976;51.694;6.256;2023-02-20T06:14:07;12.13;;;7.50;;
3922;SDS011;1976;51.694;6.256;2023-02-20T06:16:33;15.73;;;8.20;;
3922;SDS011;1976;51.694;6.256;2023-02-20T06:18:59;11.97;;;8.87;;
3922;SDS011;1976;51.694;6.256;2023-02-20T06:21:25;10.00;;;8.13;;
3922;SDS011;1976;51.694;6.256;2023-02-20T06:23:52;48.83;;;7.10;;
3922;SDS011;1976;51.694;6.256;2023-02-20T06:26:19;31.23;;;16.03;;
3922;SDS011;1976;51.694;6.256;2023-02-20T06:28:45;12.13;;;8.60;;
3922;SDS011;1976;51.694;6.256;2023-02-20T06:31:18;17.63;;;8.20;;
3922;SDS011;1976;51.694;6.256;2023-02-20T06:33:45;11.37;;;8.60;;
3922;SDS011;1976;51.694;6.256;2023-02-20T06:36:17;12.70;;;8.03;;
3922;SDS011;1976;51.694;6.256;2023-02-20T06:38:45;16.77;;;8.40;;
3922;SDS011;1976;51.694;6.256;2023-02-20T06:41:11;18.90;;;9.53;;
3922;SDS011;1976;51.694;6.256;2023-02-20T06:43:36;12.30;;;8.13;;
3922;SDS011;1976;51.694;6.256;2023-02-20T06:46:02;19.47;;;13.03;;
3922;SDS011;1976;51.694;6.256;2023-02-20T06:48:27;10.27;;;6.70;;
3922;SDS011;1976;51.694;6.256;2023-02-20T06:50:53;12.67;;;7.60;;
3922;SDS011;1976;51.694;6.256;2023-02-20T06:53:20;17.70;;;7.73;;
3922;SDS011;1976;51.694;6.256;2023-02-20T06:55:46;19.47;;;10.80;;
3922;SDS011;1976;51.694;6.256;2023-02-20T06:58:11;17.03;;;11.70;;
3922;SDS011;1976;51.694;6.256;2023-02-20T07:00:37;12.30;;;8.60;;
3922;SDS011;1976;51.694;6.256;2023-02-20T07:03:03;15.77;;;6.93;;
3922;SDS011;1976;51.694;6.256;2023-02-20T07:05:28;22.23;;;11.43;;
3922;SDS011;1976;51.694;6.256;2023-02-20T07:07:54;14.30;;;9.63;;
3922;SDS011;1976;51.694;6.256;2023-02-20T07:10:20;12.67;;;8.87;;
3922;SDS011;1976;51.694;6.256;2023-02-20T07:12:45;16.60;;;8.50;;
3922;SDS011;1976;51.694;6.256;2023-02-20T07:15:11;21.47;;;12.30;;
3922;SDS011;1976;51.694;6.256;2023-02-20T07:17:37;11.20;;;7.03;;
3922;SDS011;1976;51.694;6.256;2023-02-20T07:20:04;14.80;;;7.27;;
3922;SDS011;1976;51.694;6.256;2023-02-20T07:22:30;11.10;;;8.27;;
3922;SDS011;1976;51.694;6.256;2023-02-20T07:24:56;23.83;;;12.70;;
3922;SDS011;1976;51.694;6.256;2023-02-20T07:27:21;22.50;;;13.90;;
3922;SDS011;1976;51.694;6.256;2023-02-20T07:29:48;31.73;;;10.50;;
3922;SDS011;1976;51.694;6.256;2023-02-20T07:32:14;24.10;;;16.93;;
3922;SDS011;1976;51.694;6.256;2023-02-20T07:34:44;21.10;;;11.33;;
3922;SDS011;1976;51.694;6.256;2023-02-20T07:37:13;19.33;;;11.03;;
3922;SDS011;1976;51.694;6.256;2023-02-20T07:39:39;14.87;;;9.23;;
3922;SDS011;1976;51.694;6.256;2023-02-20T07:42:05;15.13;;;11.70;;
3922;SDS011;1976;51.694;6.256;2023-02-20T07:44:31;21.57;;;12.50;;
3922;SDS011;1976;51.694;6.256;2023-02-20T07:46:57;22.80;;;10.47;;
3922;SDS011;1976;51.694;6.256;2023-02-20T07:49:22;21.43;;;11.40;;
3922;SDS011;1976;51.694;6.256;2023-02-20T07:51:48;23.10;;;15.40;;
3922;SDS011;1976;51.694;6.256;2023-02-20T07:54:14;21.93;;;13.83;;
3922;SDS011;1976;51.694;6.256;2023-02-20T07:56:40;30.50;;;12.73;;
3922;SDS011;1976;51.694;6.256;2023-02-20T07:59:06;23.43;;;11.83;;
3922;SDS011;1976;51.694;6.256;2023-02-20T08:01:31;17.93;;;11.47;;
3922;SDS011;1976;51.694;6.256;2023-02-20T08:03:57;32.50;;;12.07;;
3922;SDS011;1976;51.694;6.256;2023-02-20T08:06:23;23.53;;;13.67;;
3922;SDS011;1976;51.694;6.256;2023-02-20T08:08:49;29.93;;;12.00;;
3922;SDS011;1976;51.694;6.256;2023-02-20T08:11:16;11.70;;;7.77;;
3922;SDS011;1976;51.694;6.256;2023-02-20T08:13:43;28.60;;;16.53;;
3922;SDS011;1976;51.694;6.256;2023-02-20T08:16:09;23.30;;;12.90;;
3922;SDS011;1976;51.694;6.256;2023-02-20T08:18:34;18.63;;;8.97;;
3922;SDS011;1976;51.694;6.256;2023-02-20T08:21:00;17.97;;;10.33;;
3922;SDS011;1976;51.694;6.256;2023-02-20T08:23:26;19.60;;;10.10;;
3922;SDS011;1976;51.694;6.256;2023-02-20T08:25:52;20.10;;;12.60;;
3922;SDS011;1976;51.694;6.256;2023-02-20T08:28:18;18.80;;;12.60;;
3922;SDS011;1976;51.694;6.256;2023-02-20T08:30:44;17.33;;;10.10;;
3922;SDS011;1976;51.694;6.256;2023-02-20T08:33:10;20.27;;;10.80;;
3922;SDS011;1976;51.694;6.256;2023-02-20T08:35:36;16.70;;;10.03;;
3922;SDS011;1976;51.694;6.256;2023-02-20T08:38:02;23.40;;;10.37;;
3922;SDS011;1976;51.694;6.256;2023-02-20T08:40:29;24.07;;;10.73;;
3922;SDS011;1976;51.694;6.256;2023-02-20T08:42:55;23.87;;;11.43;;
3922;SDS011;1976;51.694;6.256;2023-02-20T08:45:21;15.43;;;10.00;;
3922;SDS011;1976;51.694;6.256;2023-02-20T08:47:47;16.13;;;9.20;;
3922;SDS011;1976;51.694;6.256;2023-02-20T08:50:14;40.70;;;11.40;;
3922;SDS011;1976;51.694;6.256;2023-02-20T08:52:42;12.87;;;9.07;;
3922;SDS011;1976;51.694;6.256;2023-02-20T08:55:08;10.53;;;6.83;;
3922;SDS011;1976;51.694;6.256;2023-02-20T08:57:35;20.00;;;7.33;;
3922;SDS011;1976;51.694;6.256;2023-02-20T09:00:01;25.43;;;12.90;;
3922;SDS011;1976;51.694;6.256;2023-02-20T09:02:28;14.73;;;8.07;;
3922;SDS011;1976;51.694;6.256;2023-02-20T09:04:54;19.57;;;11.47;;
3922;SDS011;1976;51.694;6.256;2023-02-20T09:07:21;15.30;;;9.87;;
3922;SDS011;1976;51.694;6.256;2023-02-20T09:09:48;34.17;;;13.37;;
3922;SDS011;1976;51.694;6.256;2023-02-20T09:12:14;16.50;;;8.77;;
3922;SDS011;1976;51.694;6.256;2023-02-20T09:14:40;15.60;;;9.60;;
3922;SDS011;1976;51.694;6.256;2023-02-20T09:17:06;12.27;;;9.57;;
3922;SDS011;1976;51.694;6.256;2023-02-20T09:19:32;27.20;;;16.27;;
3922;SDS011;1976;51.694;6.256;2023-02-20T09:21:58;16.80;;;10.00;;
3922;SDS011;1976;51.694;6.256;2023-02-20T09:24:23;24.70;;;12.50;;
3922;SDS011;1976;51.694;6.256;2023-02-20T09:26:49;26.53;;;11.83;;
3922;SDS011;1976;51.694;6.256;2023-02-20T09:29:15;12.23;;;9.20;;
3922;SDS011;1976;51.694;6.256;2023-02-20T09:31:41;11.13;;;7.07;;
3922;SDS011;1976;51.694;6.256;2023-02-20T09:34:07;20.73;;;9.80;;
3922;SDS011;1976;51.694;6.256;2023-02-20T09:36:33;9.40;;;6.97;;
3922;SDS011;1976;51.694;6.256;2023-02-20T09:38:59;23.80;;;11.17;;
3922;SDS011;1976;51.694;6.256;2023-02-20T09:44:00;20.43;;;11.17;;
3922;SDS011;1976;51.694;6.256;2023-02-20T09:46:28;18.00;;;10.70;;
3922;SDS011;1976;51.694;6.256;2023-02-20T09:51:48;34.97;;;6.30;;
3922;SDS011;1976;51.694;6.256;2023-02-20T09:54:20;15.03;;;9.93;;
3922;SDS011;1976;51.694;6.256;2023-02-20T09:56:57;16.00;;;9.43;;
3922;SDS011;1976;51.694;6.256;2023-02-20T09:59:31;13.07;;;8.97;;
3922;SDS011;1976;51.694;6.256;2023-02-20T10:02:03;21.30;;;12.67;;
3922;SDS011;1976;51.694;6.256;2023-02-20T10:04:49;15.13;;;9.53;;
3922;SDS011;1976;51.694;6.256;2023-02-20T10:07:22;17.23;;;10.93;;
3922;SDS011;1976;51.694;6.256;2023-02-20T10:10:04;13.57;;;8.87;;
3922;SDS011;1976;51.694;6.256;2023-02-20T10:12:47;15.67;;;10.40;;
3922;SDS011;1976;51.694;6.256;2023-02-20T10:20:55;24.17;;;13.17;;
3922;SDS011;1976;51.694;6.256;2023-02-20T10:23:32;22.73;;;8.90;;
3922;SDS011;1976;51.694;6.256;2023-02-20T10:26:04;16.60;;;8.50;;
3922;SDS011;1976;51.694;6.256;2023-02-20T10:28:35;13.33;;;8.27;;
3922;SDS011;1976;51.694;6.256;2023-02-20T10:33:50;19.47;;;11.43;;
3922;SDS011;1976;51.694;6.256;2023-02-20T10:36:33;12.10;;;7.50;;
3922;SDS011;1976;51.694;6.256;2023-02-20T10:39:04;20.77;;;12.10;;
3922;SDS011;1976;51.694;6.256;2023-02-20T10:41:37;23.93;;;10.10;;
3922;SDS011;1976;51.694;6.256;2023-02-20T10:44:26;26.33;;;12.60;;
3922;SDS011;1976;51.694;6.256;2023-02-20T10:49:45;14.37;;;8.60;;
3922;SDS011;1976;51.694;6.256;2023-02-20T10:52:12;25.43;;;12.03;;
3922;SDS011;1976;51.694;6.256;2023-02-20T10:54:44;11.03;;;7.60;;
3922;SDS011;1976;51.694;6.256;2023-02-20T10:57:28;16.97;;;10.13;;
3922;SDS011;1976;51.694;6.256;2023-02-20T11:00:04;20.87;;;13.10;;
3922;SDS011;1976;51.694;6.256;2023-02-20T11:02:43;17.43;;;11.30;;
3922;SDS011;1976;51.694;6.256;2023-02-20T11:05:13;28.80;;;11.90;;
3922;SDS011;1976;51.694;6.256;2023-02-20T11:07:41;12.53;;;8.23;;
3922;SDS011;1976;51.694;6.256;2023-02-20T11:10:07;18.47;;;9.53;;
3922;SDS011;1976;51.694;6.256;2023-02-20T11:12:35;8.93;;;6.70;;
3922;SDS011;1976;51.694;6.256;2023-02-20T11:15:14;17.17;;;7.67;;
3922;SDS011;1976;51.694;6.256;2023-02-20T11:17:42;17.07;;;8.43;;
3922;SDS011;1976;51.694;6.256;2023-02-20T11:23:33;17.30;;;9.80;;
3922;SDS011;1976;51.694;6.256;2023-02-20T11:28:44;9.90;;;6.53;;
3922;SDS011;1976;51.694;6.256;2023-02-20T11:31:19;16.37;;;6.80;;
3922;SDS011;1976;51.694;6.256;2023-02-20T11:33:46;22.97;;;12.07;;
3922;SDS011;1976;51.694;6.256;2023-02-20T11:36:15;14.93;;;6.00;;
3922;SDS011;1976;51.694;6.256;2023-02-20T11:39:27;15.13;;;6.67;;
3922;SDS011;1976;51.694;6.256;2023-02-20T11:42:11;8.80;;;6.97;;
3922;SDS011;1976;51.694;6.256;2023-02-20T11:44:42;18.67;;;9.00;;
3922;SDS011;1976;51.694;6.256;2023-02-20T11:47:10;12.77;;;7.97;;
3922;SDS011;1976;51.694;6.256;2023-02-20T11:49:48;14.63;;;7.17;;
3922;SDS011;1976;51.694;6.256;2023-02-20T11:52:31;14.10;;;6.60;;
3922;SDS011;1976;51.694;6.256;2023-02-20T11:57:46;14.43;;;11.10;;
3922;SDS011;1976;51.694;6.256;2023-02-20T12:00:16;21.83;;;11.37;;
3922;SDS011;1976;51.694;6.256;2023-02-20T12:02:50;24.37;;;10.30;;
3922;SDS011;1976;51.694;6.256;2023-02-20T12:05:37;17.37;;;9.87;;
3922;SDS011;1976;51.694;6.256;2023-02-20T12:11:00;25.50;;;10.07;;
3922;SDS011;1976;51.694;6.256;2023-02-20T12:13:43;14.67;;;9.60;;
3922;SDS011;1976;51.694;6.256;2023-02-20T12:18:48;20.70;;;9.40;;
3922;SDS011;1976;51.694;6.256;2023-02-20T12:26:57;21.70;;;10.63;;
3922;SDS011;1976;51.694;6.256;2023-02-20T12:32:02;18.87;;;9.97;;
3922;SDS011;1976;51.694;6.256;2023-02-20T12:37:52;16.20;;;12.43;;
3922;SDS011;1976;51.694;6.256;2023-02-20T12:46:57;34.50;;;13.87;;
3922;SDS011;1976;51.694;6.256;2023-02-20T12:54:50;18.77;;;9.20;;
3922;SDS011;1976;51.694;6.256;2023-02-20T13:06:04;18.77;;;10.47;;
3922;SDS011;1976;51.694;6.256;2023-02-20T13:11:23;38.27;;;16.93;;
3922;SDS011;1976;51.694;6.256;2023-02-20T13:16:36;25.93;;;11.97;;
3922;SDS011;1976;51.694;6.256;2023-02-20T13:19:29;22.37;;;10.07;;
3922;SDS011;1976;51.694;6.256;2023-02-20T13:22:03;21.43;;;10.53;;
3922;SDS011;1976;51.694;6.256;2023-02-20T13:24:34;30.87;;;16.37;;
3922;SDS011;1976;51.694;6.256;2023-02-20T13:27:05;33.90;;;14.70;;
3922;SDS011;1976;51.694;6.256;2023-02-20T13:29:36;32.23;;;14.17;;
3922;SDS011;1976;51.694;6.256;2023-02-20T13:32:29;29.33;;;12.47;;
3922;SDS011;1976;51.694;6.256;2023-02-20T13:40:43;17.53;;;12.07;;
3922;SDS011;1976;51.694;6.256;2023-02-20T13:46:10;33.53;;;15.60;;
3922;SDS011;1976;51.694;6.256;2023-02-20T13:48:42;20.13;;;13.37;;
3922;SDS011;1976;51.694;6.256;2023-02-20T13:54:24;37.17;;;17.00;;
3922;SDS011;1976;51.694;6.256;2023-02-20T13:59:06;36.90;;;20.03;;
3922;SDS011;1976;51.694;6.256;2023-02-20T14:02:04;22.90;;;12.20;;
3922;SDS011;1976;51.694;6.256;2023-02-20T14:05:03;37.67;;;16.60;;
3922;SDS011;1976;51.694;6.256;2023-02-20T14:18:20;18.50;;;11.20;;
3922;SDS011;1976;51.694;6.256;2023-02-20T14:20:58;35.20;;;9.93;;
3922;SDS011;1976;51.694;6.256;2023-02-20T14:23:29;14.17;;;9.30;;
3922;SDS011;1976;51.694;6.256;2023-02-20T14:26:02;33.40;;;14.23;;
3922;SDS011;1976;51.694;6.256;2023-02-20T14:28:32;13.77;;;9.10;;
3922;SDS011;1976;51.694;6.256;2023-02-20T14:31:18;17.63;;;10.67;;
3922;SDS011;1976;51.694;6.256;2023-02-20T14:33:50;28.33;;;11.13;;
3922;SDS011;1976;51.694;6.256;2023-02-20T14:36:41;15.53;;;9.23;;
3922;SDS011;1976;51.694;6.256;2023-02-20T14:42:00;17.17;;;10.80;;
3922;SDS011;1976;51.694;6.256;2023-02-20T14:44:28;19.67;;;10.17;;
3922;SDS011;1976;51.694;6.256;2023-02-20T14:47:08;18.63;;;11.73;;
3922;SDS011;1976;51.694;6.256;2023-02-20T14:49:37;16.83;;;9.23;;
3922;SDS011;1976;51.694;6.256;2023-02-20T14:52:11;24.53;;;13.30;;
3922;SDS011;1976;51.694;6.256;2023-02-20T14:54:42;26.67;;;12.77;;
3922;SDS011;1976;51.694;6.256;2023-02-20T14:57:19;21.87;;;9.57;;
3922;SDS011;1976;51.694;6.256;2023-02-20T14:59:45;20.17;;;9.97;;
3922;SDS011;1976;51.694;6.256;2023-02-20T15:02:19;27.70;;;12.80;;
3922;SDS011;1976;51.694;6.256;2023-02-20T15:04:49;19.47;;;11.60;;
3922;SDS011;1976;51.694;6.256;2023-02-20T15:07:32;22.73;;;10.23;;
3922;SDS011;1976;51.694;6.256;2023-02-20T15:10:03;23.43;;;13.23;;
3922;SDS011;1976;51.694;6.256;2023-02-20T15:12:36;22.97;;;13.33;;
3922;SDS011;1976;51.694;6.256;2023-02-20T15:15:05;21.10;;;14.07;;
3922;SDS011;1976;51.694;6.256;2023-02-20T15:17:34;16.07;;;9.97;;
3922;SDS011;1976;51.694;6.256;2023-02-20T15:20:47;15.87;;;11.27;;
3922;SDS011;1976;51.694;6.256;2023-02-20T15:25:42;16.97;;;11.47;;
3922;SDS011;1976;51.694;6.256;2023-02-20T15:28:23;13.70;;;9.90;;
3922;SDS011;1976;51.694;6.256;2023-02-20T15:31:02;15.90;;;11.20;;
3922;SDS011;1976;51.694;6.256;2023-02-20T15:33:29;19.80;;;12.27;;
3922;SDS011;1976;51.694;6.256;2023-02-20T15:35:56;17.57;;;9.27;;
3922;SDS011;1976;51.694;6.256;2023-02-20T15:38:24;26.00;;;15.40;;
3922;SDS011;1976;51.694;6.256;2023-02-20T15:40:56;33.20;;;14.33;;
3922;SDS011;1976;51.694;6.256;2023-02-20T15:43:23;23.27;;;13.00;;
3922;SDS011;1976;51.694;6.256;2023-02-20T15:45:49;13.93;;;8.63;;
3922;SDS011;1976;51.694;6.256;2023-02-20T15:48:15;23.30;;;10.73;;
3922;SDS011;1976;51.694;6.256;2023-02-20T15:50:41;19.07;;;10.83;;
3922;SDS011;1976;51.694;6.256;2023-02-20T15:53:10;16.10;;;7.93;;
3922;SDS011;1976;51.694;6.256;2023-02-20T15:55:42;27.67;;;13.40;;
3922;SDS011;1976;51.694;6.256;2023-02-20T15:58:25;23.27;;;11.17;;
3922;SDS011;1976;51.694;6.256;2023-02-20T16:00:55;16.20;;;11.07;;
3922;SDS011;1976;51.694;6.256;2023-02-20T16:03:21;16.53;;;12.10;;
3922;SDS011;1976;51.694;6.256;2023-02-20T16:05:48;27.97;;;17.60;;
3922;SDS011;1976;51.694;6.256;2023-02-20T16:08:14;23.90;;;13.43;;
3922;SDS011;1976;51.694;6.256;2023-02-20T16:10:40;32.50;;;19.30;;
3922;SDS011;1976;51.694;6.256;2023-02-20T16:13:07;24.13;;;13.00;;
3922;SDS011;1976;51.694;6.256;2023-02-20T16:15:54;29.63;;;15.23;;
3922;SDS011;1976;51.694;6.256;2023-02-20T16:18:21;28.17;;;17.27;;
3922;SDS011;1976;51.694;6.256;2023-02-20T16:20:48;28.23;;;15.07;;
3922;SDS011;1976;51.694;6.256;2023-02-20T16:23:14;32.17;;;19.90;;
3922;SDS011;1976;51.694;6.256;2023-02-20T16:25:40;31.30;;;18.17;;
3922;SDS011;1976;51.694;6.256;2023-02-20T16:28:06;36.67;;;19.17;;
3922;SDS011;1976;51.694;6.256;2023-02-20T16:30:36;31.27;;;18.63;;
3922;SDS011;1976;51.694;6.256;2023-02-20T16:33:11;19.27;;;10.77;;
3922;SDS011;1976;51.694;6.256;2023-02-20T16:35:43;19.07;;;12.80;;
3922;SDS011;1976;51.694;6.256;2023-02-20T16:38:10;26.40;;;13.40;;
3922;SDS011;1976;51.694;6.256;2023-02-20T16:40:36;31.40;;;19.20;;
3922;SDS011;1976;51.694;6.256;2023-02-20T16:43:02;18.83;;;10.57;;
3922;SDS011;1976;51.694;6.256;2023-02-20T16:45:27;27.87;;;16.83;;
3922;SDS011;1976;51.694;6.256;2023-02-20T16:47:54;36.27;;;20.03;;
3922;SDS011;1976;51.694;6.256;2023-02-20T16:50:22;29.80;;;17.60;;
3922;SDS011;1976;51.694;6.256;2023-02-20T16:52:50;19.20;;;10.33;;
3922;SDS011;1976;51.694;6.256;2023-02-20T16:55:25;35.37;;;19.00;;
3922;SDS011;1976;51.694;6.256;2023-02-20T16:57:55;34.90;;;15.37;;
3922;SDS011;1976;51.694;6.256;2023-02-20T17:00:22;29.87;;;18.03;;
3922;SDS011;1976;51.694;6.256;2023-02-20T17:02:53;30.53;;;16.57;;
3922;SDS011;1976;51.694;6.256;2023-02-20T17:05:20;29.07;;;16.90;;
3922;SDS011;1976;51.694;6.256;2023-02-20T17:07:48;46.37;;;13.20;;
3922;SDS011;1976;51.694;6.256;2023-02-20T17:10:14;29.90;;;15.53;;
3922;SDS011;1976;51.694;6.256;2023-02-20T17:12:39;28.67;;;14.80;;
3922;SDS011;1976;51.694;6.256;2023-02-20T17:15:06;32.13;;;16.37;;
3922;SDS011;1976;51.694;6.256;2023-02-20T17:17:32;37.43;;;21.53;;
3922;SDS011;1976;51.694;6.256;2023-02-20T17:19:59;41.77;;;22.00;;
3922;SDS011;1976;51.694;6.256;2023-02-20T17:22:25;43.27;;;22.43;;